Terminal Aerodrome Forecast
Issued by NWS

Home | Current Version | Previous Version | Text Only | Print | Product List | Glossary On
Versions: 1 2 3 4 5 6 7 8 9 10 11 12 13
175
FTUS46 KSEW 041729
TAFOLM
TAF
KOLM 041729Z 0418/0518 02007KT P6SM SCT020 OVC040
      TEMPO 0418/0421 BKN020 OVC030
     FM050500 VRB03KT P6SM SCT025 BKN050
     FM051000 00000KT P6SM BKN020 OVC040
     FM051700 36006KT P6SM SCT025 BKN050=

USA.gov is the U.S. government's official web portal to all federal, state and local government web resources and services.